Time,TemperatureF,DewpointF,PressureIn,WindDirection,WindDirectionDegrees,WindSpeedMPH,WindSpeedGustMPH,Humidity,HourlyPrecipIn,Conditions,Clouds,dailyrainin,SolarRadiationWatts/m^2,SoftwareType,DateUTC
2013-05-11 00:03:00,69.0,67.0,-100.00,East,97,0.0,0.0,94,0.00,,,0.00,0.000000,,2013-05-11 04:03:00,
2013-05-11 00:11:00,67.0,65.0,-100.00,ENE,75,0.0,0.0,94,0.00,,,0.00,0.000000,,2013-05-11 04:11:00,
2013-05-11 00:43:00,67.0,65.0,-100.00,ENE,75,0.0,0.0,94,0.00,,,0.00,0.000000,,2013-05-11 04:43:00,
2013-05-11 00:52:00,67.0,65.0,-100.00,ENE,75,0.0,0.0,94,0.00,,,0.00,0.000000,,2013-05-11 04:52:00,
2013-05-11 01:02:00,67.0,65.0,-100.00,ENE,75,0.0,0.0,94,0.00,,,0.00,0.000000,,2013-05-11 05:02:00,
2013-05-11 01:11:00,66.0,65.0,-100.00,NE,48,0.0,0.0,95,0.00,,,0.00,0.000000,,2013-05-11 05:11:00,
2013-05-11 01:32:00,66.0,65.0,-100.00,NE,48,0.0,0.0,95,0.00,,,0.00,0.000000,,2013-05-11 05:32:00,
2013-05-11 01:42:00,66.0,65.0,-100.00,NE,48,0.0,0.0,95,0.00,,,0.00,0.000000,,2013-05-11 05:42:00,
2013-05-11 01:52:00,66.0,65.0,-100.00,NE,48,0.0,0.0,95,0.00,,,0.00,0.000000,,2013-05-11 05:52:00,
2013-05-11 02:02:00,66.0,65.0,-100.00,NE,48,0.0,0.0,95,0.00,,,0.00,0.000000,,2013-05-11 06:02:00,
2013-05-11 02:11:00,65.0,64.0,-100.00,ENE,57,0.0,0.0,95,0.00,,,0.00,0.000000,,2013-05-11 06:11:00,
2013-05-11 02:32:00,65.0,64.0,-100.00,ENE,57,0.0,0.0,95,0.00,,,0.00,0.000000,,2013-05-11 06:32:00,
2013-05-11 02:42:00,65.0,64.0,-100.00,ENE,57,0.0,0.0,95,0.00,,,0.00,0.000000,,2013-05-11 06:42:00,
2013-05-11 02:53:00,65.0,64.0,-100.00,ENE,57,0.0,0.0,95,0.00,,,0.00,0.000000,,2013-05-11 06:53:00,
2013-05-11 03:02:00,65.0,64.0,-100.00,ENE,57,0.0,0.0,95,0.00,,,0.00,0.000000,,2013-05-11 07:02:00,
2013-05-11 03:11:00,64.0,63.0,-100.00,North,356,0.0,0.0,96,0.00,,,-99.99,0.000000,,2013-05-11 07:11:00,
2013-05-11 03:32:00,64.0,63.0,-100.00,North,356,0.0,0.0,96,0.00,,,-99.99,0.000000,,2013-05-11 07:32:00,
2013-05-11 03:42:00,64.0,63.0,-100.00,North,356,0.0,0.0,96,0.00,,,-99.99,0.000000,,2013-05-11 07:42:00,
2013-05-11 03:52:00,64.0,63.0,-100.00,North,356,0.0,0.0,96,0.00,,,-99.99,0.000000,,2013-05-11 07:52:00,
2013-05-11 04:02:00,64.0,63.0,-100.00,North,356,0.0,0.0,96,0.00,,,-99.99,0.000000,,2013-05-11 08:02:00,
2013-05-11 04:11:00,63.0,62.0,-100.00,NE,45,0.0,0.0,96,0.00,,,0.00,0.000000,,2013-05-11 08:11:00,
2013-05-11 04:43:00,63.0,62.0,-100.00,NE,45,0.0,0.0,96,0.00,,,0.00,0.000000,,2013-05-11 08:43:00,
2013-05-11 04:52:00,63.0,62.0,-100.00,NE,45,0.0,0.0,96,0.00,,,0.00,0.000000,,2013-05-11 08:52:00,
2013-05-11 05:01:00,63.0,62.0,-100.00,NE,45,0.0,0.0,96,0.00,,,0.00,0.000000,,2013-05-11 09:01:00,
2013-05-11 05:11:00,63.0,62.0,-100.00,NW,308,0.0,0.0,96,0.00,,,0.00,0.000000,,2013-05-11 09:11:00,
2013-05-11 05:33:00,63.0,62.0,-100.00,NW,308,0.0,0.0,96,0.00,,,0.00,0.000000,,2013-05-11 09:33:00,
2013-05-11 05:42:00,63.0,62.0,-100.00,NW,308,0.0,0.0,96,0.00,,,0.00,0.000000,,2013-05-11 09:42:00,
2013-05-11 05:53:00,63.0,62.0,-100.00,NW,308,0.0,0.0,96,0.00,,,0.00,0.000000,,2013-05-11 09:53:00,
2013-05-11 06:03:00,63.0,62.0,-100.00,NW,308,0.0,0.0,96,0.00,,,0.00,0.000000,,2013-05-11 10:03:00,
2013-05-11 06:11:00,63.0,62.0,-100.00,SE,128,0.0,0.0,96,0.00,,,0.00,0.000000,,2013-05-11 10:11:00,
2013-05-11 06:33:00,63.0,62.0,-100.00,SE,128,0.0,0.0,96,0.00,,,0.00,0.000000,,2013-05-11 10:33:00,
2013-05-11 06:42:00,63.0,62.0,-100.00,SE,128,0.0,0.0,96,0.00,,,0.00,0.000000,,2013-05-11 10:42:00,
2013-05-11 06:53:00,63.0,62.0,-100.00,SE,128,0.0,0.0,96,0.00,,,0.00,0.000000,,2013-05-11 10:53:00,
2013-05-11 07:03:00,63.0,62.0,-100.00,SE,128,0.0,0.0,96,0.00,,,0.00,0.000000,,2013-05-11 11:03:00,
2013-05-11 07:11:00,64.0,63.0,-100.00,ENE,68,0.0,0.0,96,0.00,,,-99.99,6.000000,,2013-05-11 11:11:00,
2013-05-11 07:32:00,64.0,63.0,-100.00,ENE,68,0.0,0.0,96,0.00,,,-99.99,6.000000,,2013-05-11 11:32:00,
2013-05-11 07:42:00,64.0,63.0,-100.00,ENE,68,0.0,0.0,96,0.00,,,-99.99,6.000000,,2013-05-11 11:42:00,
2013-05-11 07:52:00,64.0,63.0,-100.00,ENE,68,0.0,0.0,96,0.00,,,-99.99,6.000000,,2013-05-11 11:52:00,
2013-05-11 08:01:00,64.0,63.0,-100.00,ENE,68,0.0,0.0,96,0.00,,,-99.99,6.000000,,2013-05-11 12:01:00,
2013-05-11 08:11:00,71.0,70.0,-100.00,ENE,75,1.0,3.0,96,0.00,,,-99.99,83.000000,,2013-05-11 12:11:00,
2013-05-11 08:32:00,71.0,70.0,-100.00,ENE,75,1.0,3.0,96,0.00,,,-99.99,83.000000,,2013-05-11 12:32:00,
2013-05-11 08:42:00,71.0,70.0,-100.00,ENE,75,1.0,3.0,96,0.00,,,-99.99,83.000000,,2013-05-11 12:42:00,
2013-05-11 08:52:00,71.0,70.0,-100.00,ENE,75,1.0,3.0,96,0.00,,,-99.99,83.000000,,2013-05-11 12:52:00,
2013-05-11 09:02:00,71.0,70.0,-100.00,ENE,75,1.0,3.0,96,0.00,,,-99.99,83.000000,,2013-05-11 13:02:00,
2013-05-11 09:11:00,80.0,74.0,-100.00,SE,124,3.0,8.0,81,0.00,,,0.00,107.000000,,2013-05-11 13:11:00,
2013-05-11 09:42:00,80.0,74.0,-100.00,SE,124,3.0,8.0,81,0.00,,,0.00,107.000000,,2013-05-11 13:42:00,
2013-05-11 09:52:00,80.0,74.0,-100.00,SE,124,3.0,8.0,81,0.00,,,0.00,107.000000,,2013-05-11 13:52:00,
2013-05-11 10:02:00,80.0,74.0,-100.00,SE,124,3.0,8.0,81,0.00,,,0.00,107.000000,,2013-05-11 14:02:00,
2013-05-11 10:11:00,84.0,71.0,-100.00,South,190,5.0,10.0,66,0.00,,,0.00,406.000000,,2013-05-11 14:11:00,
2013-05-11 10:32:00,84.0,71.0,-100.00,South,190,5.0,10.0,66,0.00,,,0.00,406.000000,,2013-05-11 14:32:00,
2013-05-11 10:42:00,84.0,71.0,-100.00,South,190,5.0,10.0,66,0.00,,,0.00,406.000000,,2013-05-11 14:42:00,
2013-05-11 10:52:00,84.0,71.0,-100.00,South,190,5.0,10.0,66,0.00,,,0.00,406.000000,,2013-05-11 14:52:00,
2013-05-11 11:01:00,84.0,71.0,-100.00,South,190,5.0,10.0,66,0.00,,,0.00,406.000000,,2013-05-11 15:01:00,
2013-05-11 12:11:00,90.0,68.0,-100.00,SSE,165,5.0,11.0,49,-99.99,,,0.00,702.000000,,2013-05-11 16:11:00,
2013-05-11 12:42:00,90.0,68.0,-100.00,SSE,165,5.0,11.0,49,-99.99,,,0.00,702.000000,,2013-05-11 16:42:00,
2013-05-11 12:53:00,90.0,68.0,-100.00,SSE,165,5.0,11.0,49,-99.99,,,0.00,702.000000,,2013-05-11 16:53:00,
2013-05-11 13:02:00,90.0,68.0,-100.00,SSE,165,5.0,11.0,49,-99.99,,,0.00,702.000000,,2013-05-11 17:02:00,
2013-05-11 13:11:00,90.0,68.0,-100.00,SSW,208,6.0,13.0,49,0.00,,,0.00,767.000000,,2013-05-11 17:11:00,
2013-05-11 13:42:00,90.0,68.0,-100.00,SSW,208,6.0,13.0,49,0.00,,,0.00,767.000000,,2013-05-11 17:42:00,
2013-05-11 13:52:00,90.0,68.0,-100.00,SSW,208,6.0,13.0,49,0.00,,,0.00,767.000000,,2013-05-11 17:52:00,
2013-05-11 14:01:00,90.0,68.0,-100.00,SSW,208,6.0,13.0,49,0.00,,,0.00,767.000000,,2013-05-11 18:01:00,
2013-05-11 14:11:00,91.0,68.0,-100.00,SW,226,6.0,11.0,47,0.00,,,0.00,741.000000,,2013-05-11 18:11:00,
2013-05-11 14:32:00,91.0,68.0,-100.00,SW,226,6.0,11.0,47,0.00,,,0.00,741.000000,,2013-05-11 18:32:00,
2013-05-11 14:42:00,91.0,68.0,-100.00,SW,226,6.0,11.0,47,0.00,,,0.00,741.000000,,2013-05-11 18:42:00,
2013-05-11 14:52:00,91.0,68.0,-100.00,SW,226,6.0,11.0,47,0.00,,,0.00,741.000000,,2013-05-11 18:52:00,
2013-05-11 15:02:00,91.0,68.0,-100.00,SW,226,6.0,11.0,47,0.00,,,0.00,741.000000,,2013-05-11 19:02:00,
2013-05-11 15:11:00,91.0,68.0,-100.00,SSW,192,7.0,15.0,47,0.00,,,0.00,762.000000,,2013-05-11 19:11:00,
2013-05-11 15:32:00,91.0,68.0,-100.00,SSW,192,7.0,15.0,47,0.00,,,0.00,762.000000,,2013-05-11 19:32:00,
2013-05-11 15:42:00,91.0,68.0,-100.00,SSW,192,7.0,15.0,47,0.00,,,0.00,762.000000,,2013-05-11 19:42:00,
2013-05-11 15:53:00,91.0,68.0,-100.00,SSW,192,7.0,15.0,47,0.00,,,0.00,762.000000,,2013-05-11 19:53:00,
2013-05-11 16:02:00,91.0,68.0,-100.00,SSW,192,7.0,15.0,47,0.00,,,0.00,762.000000,,2013-05-11 20:02:00,
2013-05-11 16:11:00,89.0,69.0,-100.00,SSW,199,7.0,18.0,52,0.00,,,0.00,735.000000,,2013-05-11 20:11:00,
2013-05-11 16:42:00,89.0,69.0,-100.00,SSW,199,7.0,18.0,52,0.00,,,0.00,735.000000,,2013-05-11 20:42:00,
2013-05-11 16:52:00,89.0,69.0,-100.00,SSW,199,7.0,18.0,52,0.00,,,0.00,735.000000,,2013-05-11 20:52:00,
2013-05-11 17:02:00,89.0,69.0,-100.00,SSW,199,7.0,18.0,52,0.00,,,0.00,735.000000,,2013-05-11 21:02:00,
2013-05-11 17:11:00,88.0,70.0,-100.00,SSW,212,5.0,12.0,56,0.00,,,-99.99,376.000000,,2013-05-11 21:11:00,
2013-05-11 17:43:00,88.0,70.0,-100.00,SSW,212,5.0,12.0,56,0.00,,,-99.99,376.000000,,2013-05-11 21:43:00,
2013-05-11 17:53:00,88.0,70.0,-100.00,SSW,212,5.0,12.0,56,0.00,,,-99.99,376.000000,,2013-05-11 21:53:00,
2013-05-11 18:02:00,88.0,70.0,-100.00,SSW,212,5.0,12.0,56,0.00,,,-99.99,376.000000,,2013-05-11 22:02:00,
2013-05-11 18:11:00,86.0,70.0,-100.00,WSW,246,6.0,13.0,59,0.00,,,0.00,305.000000,,2013-05-11 22:11:00,
2013-05-11 18:43:00,86.0,70.0,-100.00,WSW,246,6.0,13.0,59,0.00,,,0.00,305.000000,,2013-05-11 22:43:00,
2013-05-11 18:52:00,86.0,70.0,-100.00,WSW,246,6.0,13.0,59,0.00,,,0.00,305.000000,,2013-05-11 22:52:00,
2013-05-11 19:02:00,86.0,70.0,-100.00,WSW,246,6.0,13.0,59,0.00,,,0.00,305.000000,,2013-05-11 23:02:00,
2013-05-11 19:11:00,84.0,70.0,-100.00,SW,229,4.0,10.0,64,0.00,,,0.00,178.000000,,2013-05-11 23:11:00,
2013-05-11 19:32:00,84.0,70.0,-100.00,SW,229,4.0,10.0,64,0.00,,,0.00,178.000000,,2013-05-11 23:32:00,
2013-05-11 19:42:00,84.0,70.0,-100.00,SW,229,4.0,10.0,64,0.00,,,0.00,178.000000,,2013-05-11 23:42:00,
2013-05-11 19:52:00,84.0,70.0,-100.00,SW,229,4.0,10.0,64,0.00,,,0.00,178.000000,,2013-05-11 23:52:00,
2013-05-11 20:01:00,84.0,70.0,-100.00,SW,229,4.0,10.0,64,0.00,,,0.00,178.000000,,2013-05-12 00:01:00,
2013-05-11 21:11:00,74.0,70.0,-100.00,SSW,194,0.0,2.0,87,-99.99,,,0.00,0.000000,,2013-05-12 01:11:00,
2013-05-11 21:32:00,74.0,70.0,-100.00,SSW,194,0.0,2.0,87,-99.99,,,0.00,0.000000,,2013-05-12 01:32:00,
2013-05-11 21:42:00,74.0,70.0,-100.00,SSW,194,0.0,2.0,87,-99.99,,,0.00,0.000000,,2013-05-12 01:42:00,
2013-05-11 21:52:00,74.0,70.0,-100.00,SSW,194,0.0,2.0,87,-99.99,,,0.00,0.000000,,2013-05-12 01:52:00,
2013-05-11 22:02:00,74.0,70.0,-100.00,SSW,194,0.0,2.0,87,-99.99,,,0.00,0.000000,,2013-05-12 02:02:00,
2013-05-11 22:11:00,71.0,68.0,-100.00,SSE,150,0.0,0.0,91,0.00,,,0.00,0.000000,,2013-05-12 02:11:00,
2013-05-11 22:42:00,71.0,68.0,-100.00,SSE,150,0.0,0.0,91,0.00,,,0.00,0.000000,,2013-05-12 02:42:00,
2013-05-11 22:52:00,71.0,68.0,-100.00,SSE,150,0.0,0.0,91,0.00,,,0.00,0.000000,,2013-05-12 02:52:00,
2013-05-11 23:02:00,71.0,68.0,-100.00,SSE,150,0.0,0.0,91,0.00,,,0.00,0.000000,,2013-05-12 03:02:00,
2013-05-11 23:11:00,69.0,67.0,-100.00,WSW,241,0.0,0.0,93,0.00,,,0.00,0.000000,,2013-05-12 03:11:00,
2013-05-11 23:33:00,69.0,67.0,-100.00,WSW,241,0.0,0.0,93,0.00,,,0.00,0.000000,,2013-05-12 03:33:00,
2013-05-11 23:43:00,69.0,67.0,-100.00,WSW,241,0.0,0.0,93,0.00,,,0.00,0.000000,,2013-05-12 03:43:00,
2013-05-11 23:53:00,69.0,67.0,-100.00,WSW,241,0.0,0.0,93,0.00,,,0.00,0.000000,,2013-05-12 03:53:00,